Altoona Blair County Airport
KAOO : now visible

Airfield :











YOU CAN JOIN US ON...

 
LOGIN :

Register | Disclaimer

   EN    FR    IT 

 









Legend :    VFR   Marginal VFR   IFR   Intensive IFR   Very Intensive IFR
Visi :
Ceiling :
>= 8 km
>= 3000ft
5 to 8 km
1000 to 3000 ft
1500m to 5 km
500 to 1000 ft
800 to 1500m
200 to 500 ft
< 800m
< 200 ft
Symbols :   Thunderstorms  Fog  Heavy snow  Heavy precipitations  Wind > 20 kt






- Airport Elevation : 1503 ft
- IATA code : AOO


KAOO - Altoona Blair County

CURRENT METAR :
  • 081753Z AUTO 29018G22KT 10SM FEW029 SCT042 18/10 A2964 RMK AO2 SLP033 T01830100 10183 20139 50002

EXPIRED METARs :
  • 081653Z AUTO 30015G22KT 10SM BKN036 17/10 A2966 RMK AO2 SLP038 T01670100
  • 081637Z AUTO 30015G22KT 10SM SCT025 BKN036 17/10 A2965 RMK AO2 T01670100
  • 081553Z AUTO 31010KT 10SM BKN023 BKN028 OVC034 16/11 A2965 RMK AO2 SLP037 T01610106

TAF KAOO
Valid from the 08 at 18:00 until the 09 at 18:00 UTC


081753Z 0818/0918 30015G22KT P6SM OVC035
FM090000 29005KT P6SM SKC
FM091100 21009KT P6SM -SHRA OVC035 WS020/19046KT



MET'MAP, your aeronautical weather chart ! - Copyright ORBIFLY December 2007 - Disclaimer

ORBIFLY MET'MAP TEAM :

Programming & Development : Alexandra Zaïnal
Concept & original design : Baudouin d'Aumeries
Assistance for programming : Marc-Olivier Méhu
Technical & hardware support : Manuel Goepfert

Contact : metmap@orbifly.com




SOURCES & CREDITS :

   NOAA       Earth
Advisory